createdAt,value
2022-10-30T00:01:42.220Z,98668.34
2022-10-30T00:04:08.352Z,98662.34
2022-10-30T00:06:34.453Z,98666.91
2022-10-30T00:09:00.550Z,98668.53
2022-10-30T00:11:26.632Z,98665.63
2022-10-30T00:13:52.768Z,98656.53
2022-10-30T00:16:18.871Z,98667.06
2022-10-30T00:18:44.970Z,98665.19
2022-10-30T00:21:11.390Z,98660.44
2022-10-30T00:23:37.501Z,98670.56
2022-10-30T00:26:03.593Z,98662.97
2022-10-30T00:28:29.706Z,98666.91
2022-10-30T00:30:55.810Z,98667.72
2022-10-30T00:33:22.129Z,98667.94
2022-10-30T00:35:48.257Z,98664.06
2022-10-30T00:38:14.355Z,98670.47
2022-10-30T00:40:40.449Z,98662.63
2022-10-30T00:43:06.573Z,98676.72
2022-10-30T00:45:32.668Z,98668.88
2022-10-30T00:47:59.106Z,98678.84
2022-10-30T00:52:56.891Z,98678.50
2022-10-30T00:55:23.138Z,98665.53
2022-10-30T00:57:49.264Z,98668.88
2022-10-30T01:00:15.368Z,98672.97
2022-10-30T01:02:41.547Z,98662.28
2022-10-30T01:05:07.779Z,98663.09
2022-10-30T01:07:33.890Z,98660.84
2022-10-30T01:10:00.009Z,98659.81
2022-10-30T01:12:26.133Z,98657.34
2022-10-30T01:14:52.291Z,98664.59
2022-10-30T01:17:18.388Z,98649.91
2022-10-30T01:19:44.530Z,98644.53
2022-10-30T01:22:10.620Z,98649.91
2022-10-30T01:24:36.708Z,98655.53
2022-10-30T01:27:02.836Z,98659.13
2022-10-30T01:29:28.929Z,98663.72
2022-10-30T01:31:55.027Z,98670.53
2022-10-30T01:34:21.139Z,98657.53
2022-10-30T01:36:47.240Z,98650.94
2022-10-30T01:39:13.337Z,98645.59
2022-10-30T01:41:39.458Z,98646.63
2022-10-30T01:44:05.556Z,98652.22
2022-10-30T01:46:31.644Z,98654.69
2022-10-30T01:48:57.832Z,98668.75
2022-10-30T01:51:23.933Z,98661.59
2022-10-30T01:53:50.057Z,98658.50
2022-10-30T01:56:16.177Z,98664.09
2022-10-30T01:58:42.269Z,98662.88
2022-10-30T02:01:08.496Z,98662.28
2022-10-30T02:03:34.664Z,98667.88
2022-10-30T02:06:00.777Z,98660.63
2022-10-30T02:08:26.873Z,98659.81
2022-10-30T02:10:52.997Z,98661.06
2022-10-30T02:13:19.095Z,98659.00
2022-10-30T02:15:45.204Z,98665.03
2022-10-30T02:18:11.677Z,98667.28
2022-10-30T02:20:37.804Z,98673.06
2022-10-30T02:23:04.131Z,98661.75
2022-10-30T02:25:30.477Z,98658.25
2022-10-30T02:27:56.580Z,98659.47
2022-10-30T02:30:22.697Z,98655.16
2022-10-30T02:32:48.827Z,98663.81
2022-10-30T02:35:14.922Z,98662.78
2022-10-30T02:37:41.032Z,98656.41
2022-10-30T02:40:07.200Z,98659.91
2022-10-30T02:42:33.294Z,98660.13
2022-10-30T02:44:59.424Z,98671.00
2022-10-30T02:47:25.548Z,98681.88
2022-10-30T02:49:51.738Z,98683.34
2022-10-30T02:52:17.825Z,98681.25
2022-10-30T02:54:43.949Z,98684.34
2022-10-30T02:57:10.049Z,98684.31
2022-10-30T02:59:36.142Z,98671.75
2022-10-30T03:02:02.377Z,98676.69
2022-10-30T03:04:28.550Z,98676.84
2022-10-30T03:06:54.658Z,98661.44
2022-10-30T03:09:20.784Z,98662.66
2022-10-30T03:11:46.871Z,98665.38
2022-10-30T03:14:12.971Z,98661.28
2022-10-30T03:16:39.166Z,98658.97
2022-10-30T03:19:05.289Z,98662.69
2022-10-30T03:21:31.397Z,98661.88
2022-10-30T03:23:57.527Z,98654.22
2022-10-30T03:26:23.616Z,98660.22
2022-10-30T03:28:49.719Z,98662.47
2022-10-30T03:31:15.833Z,98663.53
2022-10-30T03:33:41.950Z,98663.91
2022-10-30T03:36:08.043Z,98658.72
2022-10-30T03:38:34.164Z,98667.13
2022-10-30T03:41:00.248Z,98661.34
2022-10-30T03:43:26.349Z,98669.53
2022-10-30T03:45:52.455Z,98666.66
2022-10-30T03:48:18.544Z,98661.94
2022-10-30T03:50:44.646Z,98666.69
2022-10-30T03:53:10.816Z,98669.81
2022-10-30T03:55:36.892Z,98669.34
2022-10-30T03:58:02.992Z,98659.22
2022-10-30T04:00:29.153Z,98663.44
2022-10-30T04:02:55.474Z,98666.56
2022-10-30T04:05:21.850Z,98664.09
2022-10-30T04:07:47.969Z,98666.13
2022-10-30T04:10:16.719Z,98667.13
2022-10-30T04:12:45.300Z,98662.78
2022-10-30T04:15:11.468Z,98667.66
2022-10-30T04:17:37.566Z,98664.25
2022-10-30T04:20:03.683Z,98658.28
2022-10-30T04:22:29.808Z,98662.09
2022-10-30T04:24:55.908Z,98658.84
2022-10-30T04:27:22.000Z,98659.97
2022-10-30T04:29:48.112Z,98667.97
2022-10-30T04:32:14.212Z,98670.81
2022-10-30T04:34:40.342Z,98681.03
2022-10-30T04:37:06.503Z,98676.78
2022-10-30T04:39:33.038Z,98679.22
2022-10-30T04:41:59.144Z,98689.00
2022-10-30T04:44:25.263Z,98680.75
2022-10-30T04:46:51.362Z,98677.09
2022-10-30T04:49:17.454Z,98682.47
2022-10-30T04:51:43.564Z,98686.44
2022-10-30T04:54:09.668Z,98692.22
2022-10-30T04:56:35.764Z,98702.44
2022-10-30T04:59:01.918Z,98690.00
2022-10-30T05:01:28.123Z,98693.69
2022-10-30T05:03:54.993Z,98682.31
2022-10-30T05:06:21.318Z,98679.84
2022-10-30T05:08:47.493Z,98685.75
2022-10-30T05:11:13.595Z,98686.34
2022-10-30T05:13:39.709Z,98684.47
2022-10-30T05:16:05.817Z,98671.59
2022-10-30T05:18:31.934Z,98674.38
2022-10-30T05:20:58.073Z,98679.22
2022-10-30T05:23:24.175Z,98680.78
2022-10-30T05:25:50.305Z,98675.16
2022-10-30T05:28:16.429Z,98670.19
2022-10-30T05:30:42.549Z,98677.88
2022-10-30T05:33:08.659Z,98664.53
2022-10-30T05:35:34.784Z,98672.69
2022-10-30T05:38:01.045Z,98674.81
2022-10-30T05:40:27.171Z,98672.38
2022-10-30T05:42:53.277Z,98677.22
2022-10-30T05:45:19.400Z,98664.69
2022-10-30T05:47:45.490Z,98673.06
2022-10-30T05:50:11.641Z,98671.75
2022-10-30T05:52:37.726Z,98675.06
2022-10-30T05:55:03.812Z,98668.50
2022-10-30T05:57:29.967Z,98668.31
2022-10-30T05:59:56.082Z,98674.41
2022-10-30T06:02:22.222Z,98674.66
2022-10-30T06:04:48.405Z,98669.97
2022-10-30T06:07:14.495Z,98664.63
2022-10-30T06:09:40.592Z,98671.75
2022-10-30T06:12:06.745Z,98665.88
2022-10-30T06:14:32.832Z,98673.13
2022-10-30T06:16:58.927Z,98666.44
2022-10-30T06:19:25.053Z,98655.47
2022-10-30T06:21:51.165Z,98654.34
2022-10-30T06:24:17.294Z,98652.94
2022-10-30T06:26:43.407Z,98653.00
2022-10-30T06:29:09.513Z,98652.47
2022-10-30T06:31:35.633Z,98650.03
2022-10-30T06:34:02.127Z,98649.03
2022-10-30T06:36:28.226Z,98647.00
2022-10-30T06:38:54.313Z,98641.47
2022-10-30T06:41:23.342Z,98646.00
2022-10-30T06:43:51.915Z,98640.25
2022-10-30T06:46:18.087Z,98646.34
2022-10-30T06:48:44.212Z,98646.75
2022-10-30T06:51:10.321Z,98639.44
2022-10-30T06:53:36.442Z,98640.59
2022-10-30T06:56:02.610Z,98646.63
2022-10-30T06:58:28.704Z,98648.63
2022-10-30T07:00:54.808Z,98641.50
2022-10-30T07:03:21.229Z,98637.31
2022-10-30T07:05:47.413Z,98627.97
2022-10-30T07:08:13.539Z,98647.81
2022-10-30T07:10:40.132Z,98642.19
2022-10-30T07:13:06.269Z,98642.69
2022-10-30T07:15:32.470Z,98643.75
2022-10-30T07:17:58.867Z,98638.63
2022-10-30T07:20:25.302Z,98642.75
2022-10-30T07:22:51.398Z,98650.88
2022-10-30T07:25:17.509Z,98649.41
2022-10-30T07:27:43.606Z,98654.03
2022-10-30T07:30:09.730Z,98658.78
2022-10-30T07:32:35.855Z,98665.06
2022-10-30T07:35:01.987Z,98675.72
2022-10-30T07:37:28.104Z,98691.81
2022-10-30T07:39:54.285Z,98699.81
2022-10-30T07:42:20.381Z,98707.88
2022-10-30T07:44:46.478Z,98704.31
2022-10-30T07:47:12.584Z,98707.53
2022-10-30T07:49:38.704Z,98707.53
2022-10-30T07:52:04.794Z,98704.66
2022-10-30T07:54:30.951Z,98708.22
2022-10-30T07:56:57.067Z,98713.91
2022-10-30T07:59:23.188Z,98705.81
2022-10-30T08:01:49.562Z,98703.59
2022-10-30T08:04:15.770Z,98705.94
2022-10-30T08:06:41.860Z,98705.63
2022-10-30T08:09:07.996Z,98700.91
2022-10-30T08:11:34.130Z,98697.78
2022-10-30T08:14:00.233Z,98693.94
2022-10-30T08:16:26.346Z,98706.31
2022-10-30T08:18:52.463Z,98696.34
2022-10-30T08:21:18.564Z,98694.38
2022-10-30T08:23:44.682Z,98693.53
2022-10-30T08:26:10.788Z,98697.66
2022-10-30T08:28:36.898Z,98699.06
2022-10-30T08:31:03.016Z,98702.66
2022-10-30T08:33:29.119Z,98694.66
2022-10-30T08:35:55.224Z,98693.91
2022-10-30T08:38:21.391Z,98691.66
2022-10-30T08:40:47.480Z,98686.44
2022-10-30T08:43:13.571Z,98681.97
2022-10-30T08:45:39.705Z,98678.88
2022-10-30T08:48:05.795Z,98671.50
2022-10-30T08:50:31.900Z,98674.19
2022-10-30T08:52:58.222Z,98678.34
2022-10-30T08:55:24.589Z,98677.75
2022-10-30T08:57:50.688Z,98675.97
2022-10-30T09:00:16.797Z,98680.53
2022-10-30T09:02:43.033Z,98675.81
2022-10-30T09:05:09.354Z,98676.25
2022-10-30T09:07:35.604Z,98673.81
2022-10-30T09:10:01.692Z,98677.53
2022-10-30T09:12:27.797Z,98674.66
2022-10-30T09:14:53.957Z,98676.75
2022-10-30T09:17:20.060Z,98672.47
2022-10-30T09:19:46.169Z,98675.38
2022-10-30T09:22:12.279Z,98663.84
2022-10-30T09:24:38.376Z,98667.19
2022-10-30T09:27:04.472Z,98664.16
2022-10-30T09:29:32.151Z,98658.41
2022-10-30T09:31:58.247Z,98653.06
2022-10-30T09:34:24.373Z,98649.56
2022-10-30T09:36:50.628Z,98657.44
2022-10-30T09:39:16.745Z,98651.44
2022-10-30T09:41:45.811Z,98650.41
2022-10-30T09:44:14.656Z,98648.38
2022-10-30T09:46:40.748Z,98643.03
2022-10-30T09:49:06.912Z,98647.34
2022-10-30T09:51:33.096Z,98645.47
2022-10-30T09:53:59.204Z,98645.25
2022-10-30T09:56:25.301Z,98639.69
2022-10-30T09:58:51.423Z,98643.78
2022-10-30T10:01:17.612Z,98640.44
2022-10-30T10:03:43.827Z,98640.59
2022-10-30T10:06:10.009Z,98634.84
2022-10-30T10:08:36.113Z,98631.69
2022-10-30T10:11:02.271Z,98643.00
2022-10-30T10:13:28.378Z,98641.75
2022-10-30T10:15:54.482Z,98638.25
2022-10-30T10:18:20.752Z,98640.22
2022-10-30T10:20:46.991Z,98626.56
2022-10-30T10:23:13.117Z,98629.41
2022-10-30T10:25:39.237Z,98631.84
2022-10-30T10:28:05.353Z,98631.97
2022-10-30T10:30:31.450Z,98618.13
2022-10-30T10:32:57.882Z,98611.25
2022-10-30T10:35:24.257Z,98613.91
2022-10-30T10:37:50.357Z,98621.06
2022-10-30T10:40:16.442Z,98611.72
2022-10-30T10:42:42.563Z,98610.84
2022-10-30T10:45:08.660Z,98607.41
2022-10-30T10:47:34.758Z,98610.25
2022-10-30T10:50:00.878Z,98604.47
2022-10-30T10:52:27.001Z,98607.91
2022-10-30T10:54:53.110Z,98604.69
2022-10-30T10:57:19.233Z,98606.28
2022-10-30T10:59:45.327Z,98609.47
2022-10-30T11:02:11.507Z,98608.44
2022-10-30T11:04:37.689Z,98618.47
2022-10-30T11:07:03.803Z,98609.72
2022-10-30T11:09:29.912Z,98608.03
2022-10-30T11:11:56.025Z,98608.16
2022-10-30T11:14:22.127Z,98598.97
2022-10-30T11:16:48.219Z,98604.59
2022-10-30T11:19:14.360Z,98607.22
2022-10-30T11:21:40.460Z,98605.94
2022-10-30T11:24:06.595Z,98604.22
2022-10-30T11:26:32.728Z,98596.03
2022-10-30T11:28:58.851Z,98593.34
2022-10-30T11:31:24.957Z,98591.03
2022-10-30T11:33:51.110Z,98602.16
2022-10-30T11:36:17.207Z,98594.38
2022-10-30T11:38:43.303Z,98589.94
2022-10-30T11:41:09.438Z,98603.31
2022-10-30T11:43:35.533Z,98593.03
2022-10-30T11:46:01.628Z,98597.28
2022-10-30T11:48:27.750Z,98589.19
2022-10-30T11:50:53.925Z,98594.13
2022-10-30T11:53:20.035Z,98594.25
2022-10-30T11:55:46.152Z,98591.56
2022-10-30T11:58:12.276Z,98586.53
2022-10-30T12:00:38.390Z,98584.53
2022-10-30T12:03:04.526Z,98584.75
2022-10-30T12:05:30.640Z,98575.53
2022-10-30T12:07:56.749Z,98573.38
2022-10-30T12:10:22.879Z,98582.34
2022-10-30T12:12:48.981Z,98582.66
2022-10-30T12:15:15.089Z,98585.47
2022-10-30T12:17:41.205Z,98584.28
2022-10-30T12:20:07.331Z,98569.84
2022-10-30T12:22:33.448Z,98573.56
2022-10-30T12:24:59.739Z,98575.31
2022-10-30T12:27:25.901Z,98570.72
2022-10-30T12:30:07.814Z,98565.69
2022-10-30T12:32:39.324Z,98570.38
2022-10-30T12:35:05.694Z,98567.09
2022-10-30T12:37:31.806Z,98570.69
2022-10-30T12:39:57.965Z,98557.56
2022-10-30T12:42:24.093Z,98566.34
2022-10-30T12:44:50.198Z,98569.03
2022-10-30T12:47:16.328Z,98572.19
2022-10-30T12:49:42.440Z,98568.75
2022-10-30T12:52:08.552Z,98563.13
2022-10-30T12:54:34.669Z,98566.16
2022-10-30T12:57:00.760Z,98570.25
2022-10-30T12:59:26.852Z,98576.50
2022-10-30T13:01:53.154Z,98575.66
2022-10-30T13:04:19.384Z,98575.78
2022-10-30T13:06:45.475Z,98572.81
2022-10-30T13:09:11.786Z,98577.28
2022-10-30T13:11:37.885Z,98576.94
2022-10-30T13:14:03.979Z,98566.13
2022-10-30T13:16:30.097Z,98580.09
2022-10-30T13:18:56.193Z,98576.81
2022-10-30T13:21:22.300Z,98572.13
2022-10-30T13:23:48.420Z,98573.53
2022-10-30T13:26:14.509Z,98568.13
2022-10-30T13:28:40.605Z,98576.50
2022-10-30T13:31:06.765Z,98582.13
2022-10-30T13:33:32.878Z,98571.38
2022-10-30T13:35:58.971Z,98572.78
2022-10-30T13:38:25.100Z,98573.25
2022-10-30T13:40:51.189Z,98572.44
2022-10-30T13:43:17.303Z,98568.59
2022-10-30T13:45:43.422Z,98574.78
2022-10-30T13:48:09.507Z,98573.41
2022-10-30T13:50:35.607Z,98567.66
2022-10-30T13:53:02.058Z,98569.78
2022-10-30T13:55:28.429Z,98579.41
2022-10-30T13:57:54.545Z,98581.53
2022-10-30T14:00:20.677Z,98579.09
2022-10-30T14:02:46.905Z,98575.81
2022-10-30T14:05:13.121Z,98566.63
2022-10-30T14:07:39.272Z,98576.63
2022-10-30T14:10:05.373Z,98573.81
2022-10-30T14:12:31.477Z,98566.22
2022-10-30T14:14:57.587Z,98566.94
2022-10-30T14:17:23.684Z,98571.03
2022-10-30T14:19:49.794Z,98568.69
2022-10-30T14:22:15.956Z,98559.19
2022-10-30T14:24:42.047Z,98564.94
2022-10-30T14:27:08.126Z,98564.47
2022-10-30T14:29:34.294Z,98561.41
2022-10-30T14:32:00.398Z,98569.88
2022-10-30T14:34:26.526Z,98560.97
2022-10-30T14:36:52.632Z,98560.88
2022-10-30T14:39:18.727Z,98568.38
2022-10-30T14:41:44.832Z,98572.81
2022-10-30T14:44:10.946Z,98568.13
2022-10-30T14:46:37.048Z,98572.34
2022-10-30T14:49:03.158Z,98580.06
2022-10-30T14:51:29.268Z,98583.34
2022-10-30T14:53:55.372Z,98587.94
2022-10-30T14:56:21.485Z,98573.97
2022-10-30T14:58:47.620Z,98573.66
2022-10-30T15:01:13.805Z,98575.41
2022-10-30T15:03:40.127Z,98589.34
2022-10-30T15:06:06.307Z,98581.50
2022-10-30T15:08:32.452Z,98581.50
2022-10-30T15:10:58.539Z,98592.63
2022-10-30T15:13:24.686Z,98585.00
2022-10-30T15:15:50.771Z,98588.63
2022-10-30T15:18:16.899Z,98586.78
2022-10-30T15:20:43.035Z,98587.69
2022-10-30T15:23:09.153Z,98573.88
2022-10-30T15:25:35.247Z,98583.00
2022-10-30T15:28:01.801Z,98578.91
2022-10-30T15:30:28.266Z,98577.97
2022-10-30T15:32:54.361Z,98584.16
2022-10-30T15:35:20.538Z,98573.50
2022-10-30T15:37:46.616Z,98573.16
2022-10-30T15:40:12.708Z,98574.81
2022-10-30T15:42:38.829Z,98583.09
2022-10-30T15:45:04.941Z,98576.66
2022-10-30T15:47:31.044Z,98571.09
2022-10-30T15:49:57.226Z,98579.72
2022-10-30T15:52:23.352Z,98575.03
2022-10-30T15:54:49.439Z,98571.03
2022-10-30T15:57:49.349Z,98570.28
2022-10-30T16:00:01.713Z,98586.50
2022-10-30T16:02:27.986Z,98589.88
2022-10-30T16:04:54.157Z,98585.22
2022-10-30T16:07:20.251Z,98584.22
2022-10-30T16:09:46.371Z,98581.19
2022-10-30T16:12:12.925Z,98586.06
2022-10-30T16:14:39.096Z,98586.38
2022-10-30T16:17:05.227Z,98588.03
2022-10-30T16:19:31.324Z,98593.88
2022-10-30T16:21:57.410Z,98596.19
2022-10-30T16:24:23.533Z,98588.81
2022-10-30T16:26:49.626Z,98592.84
2022-10-30T16:29:15.722Z,98596.19
2022-10-30T16:31:41.876Z,98599.69
2022-10-30T16:34:08.003Z,98606.84
2022-10-30T16:36:34.100Z,98606.69
2022-10-30T16:39:00.525Z,98607.72
2022-10-30T16:41:27.211Z,98608.03
2022-10-30T16:43:53.508Z,98616.38
2022-10-30T16:46:19.618Z,98618.44
2022-10-30T16:48:45.703Z,98614.75
2022-10-30T16:51:11.805Z,98624.69
2022-10-30T16:53:37.959Z,98628.47
2022-10-30T16:56:04.064Z,98636.56
2022-10-30T16:58:30.158Z,98649.84
2022-10-30T17:00:56.357Z,98651.94
2022-10-30T17:03:22.496Z,98650.72
2022-10-30T17:05:48.595Z,98648.03
2022-10-30T17:08:14.710Z,98647.44
2022-10-30T17:10:40.810Z,98650.41
2022-10-30T17:13:06.904Z,98661.34
2022-10-30T17:15:33.519Z,98666.69
2022-10-30T17:17:59.905Z,98664.22
2022-10-30T17:20:28.289Z,98660.09
2022-10-30T17:22:57.600Z,98661.59
2022-10-30T17:25:23.931Z,98669.84
2022-10-30T17:27:50.037Z,98676.50
2022-10-30T17:30:16.152Z,98675.88
2022-10-30T17:32:42.274Z,98686.25
2022-10-30T17:35:08.374Z,98695.31
2022-10-30T17:37:34.505Z,98699.66
2022-10-30T17:40:00.603Z,98703.00
2022-10-30T17:42:26.710Z,98707.31
2022-10-30T17:44:52.824Z,98715.34
2022-10-30T17:47:18.938Z,98725.25
2022-10-30T17:49:45.041Z,98722.59
2022-10-30T17:52:11.152Z,98718.53
2022-10-30T17:54:37.249Z,98726.78
2022-10-30T17:57:03.369Z,98726.78
2022-10-30T17:59:29.485Z,98730.50
2022-10-30T18:01:55.698Z,98731.53
2022-10-30T18:04:21.871Z,98727.03
2022-10-30T18:06:47.986Z,98731.56
2022-10-30T18:09:14.103Z,98746.22
2022-10-30T18:11:40.194Z,98746.41
2022-10-30T18:14:06.306Z,98738.16
2022-10-30T18:16:32.487Z,98727.00
2022-10-30T18:18:58.597Z,98754.22
2022-10-30T18:21:25.007Z,98737.53
2022-10-30T18:23:52.898Z,98746.81
2022-10-30T18:26:19.414Z,98744.13
2022-10-30T18:28:45.539Z,98761.66
2022-10-30T18:31:11.654Z,98763.94
2022-10-30T18:33:37.784Z,98760.44
2022-10-30T18:36:03.913Z,98758.81
2022-10-30T18:38:30.016Z,98766.00
2022-10-30T18:40:56.095Z,98767.84
2022-10-30T18:43:22.217Z,98761.06
2022-10-30T18:45:48.307Z,98771.97
2022-10-30T18:48:14.395Z,98777.75
2022-10-30T18:50:40.808Z,98787.63
2022-10-30T18:53:06.901Z,98783.94
2022-10-30T18:55:33.039Z,98800.41
2022-10-30T18:57:59.536Z,98788.66
2022-10-30T19:00:26.485Z,98794.63
2022-10-30T19:02:52.805Z,98790.69
2022-10-30T19:05:19.113Z,98791.13
2022-10-30T19:07:45.214Z,98785.53
2022-10-30T19:10:11.324Z,98788.84
2022-10-30T19:12:42.194Z,98783.91
2022-10-30T19:15:08.529Z,98787.38
2022-10-30T19:17:34.616Z,98790.50
2022-10-30T19:20:00.734Z,98781.44
2022-10-30T19:22:26.836Z,98774.84
2022-10-30T19:24:52.938Z,98778.53
2022-10-30T19:27:19.079Z,98783.47
2022-10-30T19:29:45.251Z,98778.31
2022-10-30T19:32:11.363Z,98775.03
2022-10-30T19:34:37.659Z,98777.69
2022-10-30T19:37:03.783Z,98786.97
2022-10-30T19:39:29.930Z,98788.34
2022-10-30T19:41:56.046Z,98786.72
2022-10-30T19:44:22.158Z,98791.81
2022-10-30T19:46:48.251Z,98796.75
2022-10-30T19:49:14.352Z,98798.78
2022-10-30T19:51:40.504Z,98800.41
2022-10-30T19:54:06.597Z,98796.94
2022-10-30T19:56:32.706Z,98801.84
2022-10-30T19:58:58.817Z,98800.59
2022-10-30T20:01:25.135Z,98796.28
2022-10-30T20:03:51.360Z,98806.19
2022-10-30T20:06:17.477Z,98807.59
2022-10-30T20:08:43.596Z,98812.91
2022-10-30T20:11:09.721Z,98812.50
2022-10-30T20:13:35.861Z,98820.72
2022-10-30T20:16:01.950Z,98817.13
2022-10-30T20:18:28.204Z,98823.69
2022-10-30T20:20:54.306Z,98827.81
2022-10-30T20:23:20.471Z,98828.63
2022-10-30T20:25:46.623Z,98827.41
2022-10-30T20:28:12.754Z,98830.91
2022-10-30T20:30:38.864Z,98828.81
2022-10-30T20:33:05.070Z,98841.91
2022-10-30T20:35:31.176Z,98846.88
2022-10-30T20:37:57.335Z,98846.44
2022-10-30T20:40:23.446Z,98848.72
2022-10-30T20:42:49.539Z,98843.06
2022-10-30T20:45:15.628Z,98848.47
2022-10-30T20:47:41.724Z,98859.75
2022-10-30T20:50:07.833Z,98850.28
2022-10-30T20:52:34.112Z,98861.13
2022-10-30T20:55:01.148Z,98857.81
2022-10-30T20:57:27.311Z,98850.44
2022-10-30T20:59:53.436Z,98848.81
2022-10-30T21:02:19.648Z,98862.19
2022-10-30T21:04:45.851Z,98858.06
2022-10-30T21:07:11.956Z,98860.09
2022-10-30T21:09:38.074Z,98874.09
2022-10-30T21:12:04.194Z,98872.25
2022-10-30T21:14:30.300Z,98871.19
2022-10-30T21:16:56.418Z,98875.13
2022-10-30T21:19:22.537Z,98869.38
2022-10-30T21:21:48.641Z,98863.84
2022-10-30T21:24:14.766Z,98871.47
2022-10-30T21:26:40.869Z,98877.25
2022-10-30T21:29:06.986Z,98873.69
2022-10-30T21:31:33.094Z,98872.47
2022-10-30T21:33:59.199Z,98879.03
2022-10-30T21:36:25.297Z,98874.16
2022-10-30T21:38:51.430Z,98883.56
2022-10-30T21:41:17.539Z,98881.47
2022-10-30T21:43:43.659Z,98879.59
2022-10-30T21:46:09.899Z,98877.91
2022-10-30T21:48:36.054Z,98884.69
2022-10-30T21:51:02.181Z,98883.66
2022-10-30T21:53:28.329Z,98883.66
2022-10-30T21:55:54.469Z,98885.09
2022-10-30T21:58:20.572Z,98877.16
2022-10-30T22:00:47.710Z,98886.13
2022-10-30T22:03:13.897Z,98885.25
2022-10-30T22:05:39.984Z,98880.91
2022-10-30T22:08:06.109Z,98886.88
2022-10-30T22:10:32.201Z,98880.06
2022-10-30T22:12:58.360Z,98878.75
2022-10-30T22:15:24.532Z,98875.88
2022-10-30T22:17:50.625Z,98888.41
2022-10-30T22:20:16.720Z,98878.41
2022-10-30T22:22:42.833Z,98880.88
2022-10-30T22:25:08.924Z,98883.38
2022-10-30T22:27:35.016Z,98881.25
2022-10-30T22:30:01.413Z,98892.16
2022-10-30T22:32:27.507Z,98893.81
2022-10-30T22:34:53.601Z,98896.94
2022-10-30T22:37:19.714Z,98897.69
2022-10-30T22:39:45.879Z,98904.13
2022-10-30T22:42:11.971Z,98913.69
2022-10-30T22:44:38.078Z,98912.72
2022-10-30T22:47:04.184Z,98920.06
2022-10-30T22:49:30.285Z,98919.59
2022-10-30T22:51:56.417Z,98910.88
2022-10-30T22:54:22.528Z,98929.72
2022-10-30T22:56:48.622Z,98924.94
2022-10-30T22:59:14.745Z,98926.53
2022-10-30T23:01:40.871Z,98931.31
2022-10-30T23:04:07.046Z,98924.25
2022-10-30T23:06:33.213Z,98934.47
2022-10-30T23:08:59.349Z,98946.75
2022-10-30T23:11:25.567Z,98945.13
2022-10-30T23:13:51.732Z,98944.03
2022-10-30T23:16:17.816Z,98944.84
2022-10-30T23:18:43.911Z,98941.81
2022-10-30T23:21:10.028Z,98949.97
2022-10-30T23:23:36.116Z,98948.34
2022-10-30T23:26:02.259Z,98941.41
2022-10-30T23:28:28.381Z,98939.81
2022-10-30T23:30:54.483Z,98943.81
2022-10-30T23:33:20.579Z,98943.16
2022-10-30T23:35:46.696Z,98944.16
2022-10-30T23:38:12.800Z,98950.25
2022-10-30T23:40:38.885Z,98949.47
2022-10-30T23:43:05.122Z,98949.81
2022-10-30T23:45:31.351Z,98949.06
2022-10-30T23:47:57.759Z,98954.19
2022-10-30T23:50:24.072Z,98957.88
2022-10-30T23:52:50.185Z,98951.13
2022-10-30T23:55:16.271Z,98957.88
2022-10-30T23:57:42.415Z,98956.19
